createdAt,value
2023-04-22T05:05:39.212Z,3.85
2023-04-22T05:08:08.554Z,4.18
2023-04-22T05:10:46.984Z,4.28
2023-04-22T05:13:40.369Z,4.20
2023-04-22T05:16:09.871Z,4.68
2023-04-22T05:18:37.623Z,4.72
2023-04-22T05:21:08.708Z,4.75
2023-04-22T05:23:36.178Z,3.80
2023-04-22T05:28:34.062Z,4.32
2023-04-22T05:31:00.741Z,3.80
2023-04-22T05:33:29.688Z,4.85
2023-04-22T05:35:56.584Z,4.25
2023-04-22T05:38:24.232Z,3.40
2023-04-22T05:40:51.905Z,4.22
2023-04-22T05:43:19.890Z,4.32
2023-04-22T05:45:54.300Z,3.78
2023-04-22T05:48:22.309Z,3.63
2023-04-22T05:51:01.705Z,4.18
2023-04-22T05:53:30.467Z,4.10
2023-04-22T05:55:59.586Z,3.95
2023-04-22T05:58:26.902Z,3.90
2023-04-22T06:00:55.053Z,3.78
2023-04-22T06:03:40.599Z,3.63
2023-04-22T06:06:08.649Z,3.92
2023-04-22T06:08:36.081Z,3.42
2023-04-22T06:11:02.817Z,4.13
2023-04-22T06:13:33.220Z,3.30
2023-04-22T06:16:01.351Z,3.20
2023-04-22T06:18:29.198Z,3.67
2023-04-22T06:20:56.753Z,3.53
2023-04-22T06:23:24.256Z,3.15
2023-04-22T06:25:52.033Z,3.53
2023-04-22T06:28:26.052Z,3.30
2023-04-22T06:31:20.428Z,3.10
2023-04-22T06:33:52.184Z,3.17
2023-04-22T06:36:44.104Z,2.83
2023-04-22T06:39:12.519Z,2.78
2023-04-22T06:41:54.875Z,3.20
2023-04-22T06:47:28.029Z,2.80
2023-04-22T06:50:26.317Z,3.03
2023-04-22T06:53:10.588Z,2.90
2023-04-22T06:55:37.941Z,3.28
2023-04-22T06:58:05.368Z,2.85
2023-04-22T07:00:32.267Z,2.67
2023-04-22T07:02:59.789Z,2.47
2023-04-22T07:05:27.014Z,2.95
2023-04-22T07:07:54.238Z,2.72
2023-04-22T07:10:27.208Z,2.47
2023-04-22T07:13:12.750Z,2.63
2023-04-22T07:15:42.674Z,2.40
2023-04-22T07:20:42.413Z,2.53
2023-04-22T07:23:18.411Z,2.05
2023-04-22T07:25:48.674Z,2.67
2023-04-22T07:28:20.132Z,2.00
2023-04-22T07:30:47.784Z,2.42
2023-04-22T07:33:14.569Z,2.55
2023-04-22T07:35:44.448Z,2.25
2023-04-22T07:40:57.172Z,2.10
2023-04-22T07:43:24.010Z,2.20
2023-04-22T07:45:51.729Z,2.30
2023-04-22T07:48:18.477Z,2.45
2023-04-22T07:50:45.724Z,3.13
2023-04-22T07:53:13.329Z,2.10
2023-04-22T07:55:40.852Z,1.98
2023-04-22T07:58:07.567Z,2.13
2023-04-22T08:00:35.705Z,2.10
2023-04-22T08:03:05.528Z,2.30
2023-04-22T08:05:33.145Z,2.63
2023-04-22T08:08:00.176Z,3.40
2023-04-22T08:10:36.202Z,3.03
2023-04-22T08:13:03.165Z,2.97
2023-04-22T08:18:02.751Z,2.47
2023-04-22T08:20:30.124Z,3.00
2023-04-22T08:23:00.592Z,2.42
2023-04-22T08:25:29.022Z,2.20
2023-04-22T08:27:55.951Z,1.88
2023-04-22T08:30:24.737Z,2.33
2023-04-22T08:32:54.104Z,2.05
2023-04-22T08:35:21.620Z,2.55
2023-04-22T08:37:48.261Z,2.40
2023-04-22T08:40:15.547Z,2.03
2023-04-22T08:42:44.652Z,2.05
2023-04-22T08:45:12.872Z,3.05
2023-04-22T08:47:39.510Z,2.50
2023-04-22T08:50:10.456Z,2.58
2023-04-22T08:52:37.638Z,2.13
2023-04-22T08:55:09.511Z,2.22
2023-04-22T08:57:38.658Z,2.55
2023-04-22T09:02:38.679Z,2.70
2023-04-22T09:05:09.391Z,2.72
2023-04-22T09:07:36.424Z,2.67
2023-04-22T09:10:04.359Z,2.28
2023-04-22T09:12:31.226Z,2.30
2023-04-22T09:14:58.650Z,2.70
2023-04-22T09:17:33.627Z,2.10
2023-04-22T09:20:09.354Z,2.70
2023-04-22T09:22:42.531Z,2.30
2023-04-22T09:25:21.082Z,1.85
2023-04-22T09:27:56.496Z,2.80
2023-04-22T09:30:35.425Z,2.65
2023-04-22T09:33:04.271Z,2.30
2023-04-22T09:35:33.708Z,2.25
2023-04-22T09:38:02.253Z,2.58
2023-04-22T09:40:31.111Z,2.47
2023-04-22T09:43:00.669Z,2.22
2023-04-22T09:45:30.985Z,2.30
2023-04-22T09:48:02.776Z,2.10
2023-04-22T09:50:30.222Z,2.40
2023-04-22T09:53:01.310Z,2.25
2023-04-22T09:55:30.573Z,2.13
2023-04-22T09:57:58.204Z,2.10
2023-04-22T10:00:29.233Z,1.98
2023-04-22T10:02:55.964Z,2.03
2023-04-22T10:05:24.219Z,2.33
2023-04-22T10:07:51.618Z,2.55
2023-04-22T10:10:22.100Z,2.38
2023-04-22T10:12:51.033Z,2.00
2023-04-22T10:15:18.440Z,1.90
2023-04-22T10:17:46.790Z,1.90
2023-04-22T10:20:18.174Z,1.88
2023-04-22T10:22:46.292Z,2.33
2023-04-22T10:25:23.491Z,1.77
2023-04-22T10:28:16.500Z,2.28
2023-04-22T10:30:43.984Z,2.03
2023-04-22T10:33:29.105Z,2.00
2023-04-22T10:36:17.361Z,2.47
2023-04-22T10:38:52.195Z,1.98
2023-04-22T10:41:24.035Z,2.25
2023-04-22T10:44:07.576Z,1.95
2023-04-22T10:46:36.830Z,2.13
2023-04-22T10:49:11.766Z,2.42
2023-04-22T10:51:49.352Z,1.70
2023-04-22T10:54:31.110Z,2.00
2023-04-22T10:57:15.446Z,1.92
2023-04-22T10:59:50.355Z,1.63
2023-04-22T11:02:18.768Z,2.35
2023-04-22T11:04:46.706Z,1.63
2023-04-22T11:07:30.065Z,1.90
2023-04-22T11:10:37.722Z,1.77
2023-04-22T11:13:07.181Z,1.50
2023-04-22T11:15:36.636Z,2.10
2023-04-22T11:18:03.711Z,2.00
2023-04-22T11:20:31.403Z,1.85
2023-04-22T11:22:58.593Z,1.88
2023-04-22T11:25:27.170Z,1.75
2023-04-22T11:27:56.639Z,1.73
2023-04-22T11:30:26.164Z,2.00
2023-04-22T11:32:59.284Z,1.88
2023-04-22T11:35:29.710Z,1.55
2023-04-22T11:38:01.707Z,1.95
2023-04-22T11:40:31.864Z,1.80
2023-04-22T11:43:01.432Z,1.77
2023-04-22T11:45:30.710Z,1.70
2023-04-22T11:47:59.348Z,1.95
2023-04-22T11:50:29.199Z,1.60
2023-04-22T11:53:04.100Z,1.73
2023-04-22T11:55:38.588Z,1.92
2023-04-22T11:58:14.633Z,2.08
2023-04-22T12:00:50.689Z,1.80
2023-04-22T12:03:21.503Z,1.60
2023-04-22T12:05:58.124Z,1.65
2023-04-22T12:08:31.374Z,2.00
2023-04-22T12:11:00.962Z,2.38
2023-04-22T12:13:30.364Z,1.80
2023-04-22T12:16:05.274Z,1.95
2023-04-22T12:18:34.334Z,2.28
2023-04-22T12:23:53.416Z,2.28
2023-04-22T12:26:23.711Z,1.92
2023-04-22T12:28:53.725Z,2.13
2023-04-22T12:31:21.441Z,2.60
2023-04-22T12:33:48.825Z,2.00
2023-04-22T12:36:16.124Z,1.80
2023-04-22T12:38:43.084Z,2.20
2023-04-22T12:41:10.900Z,1.60
2023-04-22T12:43:37.742Z,2.00
2023-04-22T12:46:07.252Z,1.77
2023-04-22T12:48:36.255Z,1.80
2023-04-22T12:51:04.133Z,1.70
2023-04-22T12:53:30.782Z,1.80
2023-04-22T12:55:58.536Z,2.00
2023-04-22T12:58:26.226Z,1.80
2023-04-22T13:00:53.572Z,1.90
2023-04-22T13:03:21.025Z,1.80
2023-04-22T13:05:48.786Z,1.95
2023-04-22T13:08:15.781Z,2.47
2023-04-22T13:10:42.370Z,1.75
2023-04-22T13:13:18.329Z,1.38
2023-04-22T13:15:50.378Z,1.70
2023-04-22T13:18:17.207Z,2.00
2023-04-22T13:20:44.568Z,1.70
2023-04-22T13:23:11.466Z,1.80
2023-04-22T13:25:38.894Z,2.00
2023-04-22T13:28:05.827Z,1.90
2023-04-22T13:30:33.531Z,1.90
2023-04-22T13:33:00.298Z,1.40
2023-04-22T13:35:28.080Z,1.60
2023-04-22T13:37:54.736Z,2.17
2023-04-22T13:40:22.176Z,1.50
2023-04-22T13:42:48.891Z,2.47
2023-04-22T13:45:16.101Z,1.70
2023-04-22T13:47:42.709Z,2.00
2023-04-22T13:50:10.955Z,2.05
2023-04-22T13:52:37.557Z,1.67
2023-04-22T13:55:05.412Z,2.05
2023-04-22T13:57:32.006Z,1.88
2023-04-22T13:59:59.342Z,1.90
2023-04-22T14:02:26.079Z,2.17
2023-04-22T14:04:53.477Z,1.73
2023-04-22T14:07:20.084Z,1.92
2023-04-22T14:09:47.238Z,2.00
2023-04-22T14:12:13.934Z,2.20
2023-04-22T14:14:41.237Z,1.50
2023-04-22T14:17:08.249Z,1.73
2023-04-22T14:19:39.272Z,1.90
2023-04-22T14:22:06.570Z,1.73
2023-04-22T14:24:34.021Z,1.80
2023-04-22T14:27:01.752Z,2.10
2023-04-22T14:29:30.159Z,1.75
2023-04-22T14:31:58.051Z,1.67
2023-04-22T14:34:27.338Z,1.80
2023-04-22T14:36:54.230Z,1.90
2023-04-22T14:39:21.707Z,2.10
2023-04-22T14:41:48.883Z,1.95
2023-04-22T14:44:16.344Z,1.80
2023-04-22T14:46:42.970Z,1.90
2023-04-22T14:49:10.560Z,1.95
2023-04-22T14:51:37.315Z,2.00
2023-04-22T14:54:05.309Z,1.98
2023-04-22T14:56:32.060Z,2.00
2023-04-22T14:58:59.318Z,2.15
2023-04-22T15:01:26.067Z,1.92
2023-04-22T15:03:53.551Z,2.10
2023-04-22T15:06:20.636Z,2.10
2023-04-22T15:08:47.914Z,2.60
2023-04-22T15:11:14.467Z,2.38
2023-04-22T15:13:41.579Z,1.90
2023-04-22T15:16:08.388Z,1.90
2023-04-22T15:18:36.133Z,2.38
2023-04-22T15:21:05.797Z,2.40
2023-04-22T15:23:33.544Z,1.90
2023-04-22T15:26:00.179Z,1.92
2023-04-22T15:28:27.993Z,2.25
2023-04-22T15:33:35.939Z,2.17
2023-04-22T15:36:04.269Z,2.10
2023-04-22T15:38:31.842Z,2.10
2023-04-22T15:41:00.305Z,2.15
2023-04-22T15:43:27.887Z,2.05
2023-04-22T15:46:05.684Z,2.00
2023-04-22T15:48:36.420Z,1.85
2023-04-22T15:51:03.311Z,2.08
2023-04-22T15:53:31.338Z,2.00
2023-04-22T15:55:58.506Z,1.73
2023-04-22T15:58:25.882Z,1.92
2023-04-22T16:01:01.751Z,2.33
2023-04-22T16:03:35.457Z,4.53
2023-04-22T16:06:04.074Z,4.47
2023-04-22T16:08:32.423Z,4.78
2023-04-22T16:13:41.075Z,3.03
2023-04-22T16:16:08.375Z,2.40
2023-04-22T16:18:45.986Z,2.00
2023-04-22T16:21:13.188Z,2.40
2023-04-22T16:23:40.799Z,2.72
2023-04-22T16:26:08.726Z,2.92
2023-04-22T16:28:35.767Z,2.55
2023-04-22T16:31:02.483Z,2.58
2023-04-22T16:33:29.446Z,2.58
2023-04-22T16:35:56.145Z,2.65
2023-04-22T16:38:23.372Z,2.55
2023-04-22T16:40:53.893Z,2.97
2023-04-22T16:43:21.407Z,3.83
2023-04-22T16:45:48.792Z,3.72
2023-04-22T16:48:16.226Z,3.25
2023-04-22T16:50:45.259Z,3.17
2023-04-22T16:55:39.288Z,3.03
2023-04-22T16:58:06.191Z,3.78
2023-04-22T17:00:32.867Z,3.97
2023-04-22T17:03:01.220Z,3.67
2023-04-22T17:05:27.997Z,3.20
2023-04-22T17:07:54.851Z,5.38
2023-04-22T17:10:21.437Z,4.50
2023-04-22T17:12:48.471Z,3.95
2023-04-22T17:15:15.227Z,7.32
2023-04-22T17:17:42.154Z,5.15
2023-04-22T17:20:09.226Z,4.47
2023-04-22T17:22:36.129Z,4.32
2023-04-22T17:25:02.918Z,3.72
2023-04-22T17:27:30.169Z,3.10
2023-04-22T17:29:56.937Z,3.38
2023-04-22T17:32:24.396Z,4.90
2023-04-22T17:34:51.129Z,4.53
2023-04-22T17:37:18.604Z,4.03
2023-04-22T17:39:45.378Z,4.05
2023-04-22T17:42:12.482Z,4.68
2023-04-22T17:44:39.309Z,4.43
2023-04-22T17:47:07.342Z,4.30
2023-04-22T17:49:34.373Z,4.35
2023-04-22T17:52:01.698Z,4.13
2023-04-22T17:54:28.376Z,4.32
2023-04-22T17:56:55.883Z,4.20
2023-04-22T17:59:22.592Z,4.15
2023-04-22T18:01:49.923Z,4.97
2023-04-22T18:04:16.693Z,5.40
2023-04-22T18:06:44.041Z,3.72
2023-04-22T18:09:10.715Z,3.78
2023-04-22T18:11:37.693Z,3.78
2023-04-22T18:14:04.352Z,3.38
2023-04-22T18:16:32.655Z,4.22
2023-04-22T18:19:02.110Z,4.22
2023-04-22T18:21:29.895Z,4.38
2023-04-22T18:23:56.543Z,5.40
2023-04-22T18:26:23.508Z,4.40
2023-04-22T18:28:50.717Z,5.07
2023-04-22T18:31:18.012Z,5.72
2023-04-22T18:33:44.677Z,6.10
2023-04-22T18:36:12.033Z,7.35
2023-04-22T18:38:38.804Z,7.05
2023-04-22T18:41:06.274Z,6.15
2023-04-22T18:43:32.947Z,4.88
2023-04-22T18:46:00.222Z,5.03
2023-04-22T18:48:26.782Z,4.80
2023-04-22T18:50:54.062Z,5.82
2023-04-22T18:53:20.675Z,6.68
2023-04-22T18:55:48.030Z,8.75
2023-04-22T18:58:14.664Z,8.30
2023-04-22T19:00:42.551Z,6.72
2023-04-22T19:03:09.659Z,5.38
2023-04-22T19:05:39.152Z,4.72
2023-04-22T19:08:06.151Z,3.85
2023-04-22T19:10:33.672Z,4.00
2023-04-22T19:13:00.274Z,3.80
2023-04-22T19:15:27.548Z,4.28
2023-04-22T19:17:54.783Z,4.03
2023-04-22T19:20:22.359Z,4.43
2023-04-22T19:22:49.255Z,4.72
2023-04-22T19:25:16.579Z,4.88
2023-04-22T19:27:43.300Z,5.72
2023-04-22T19:30:10.852Z,5.60
2023-04-22T19:32:37.957Z,4.32
2023-04-22T19:35:06.279Z,3.83
2023-04-22T19:37:33.964Z,4.50
2023-04-22T19:40:01.203Z,4.70
2023-04-22T19:42:27.941Z,4.63
2023-04-22T19:44:56.321Z,4.05
2023-04-22T19:47:23.163Z,4.25
2023-04-22T19:49:50.653Z,4.47
2023-04-22T19:52:17.540Z,4.35
2023-04-22T19:54:47.769Z,4.65
2023-04-22T19:57:15.230Z,4.13
2023-04-22T19:59:43.043Z,4.32
2023-04-22T20:02:10.247Z,3.78
2023-04-22T20:04:38.213Z,3.25
2023-04-22T20:07:05.645Z,3.70
2023-04-22T20:09:33.677Z,3.40
2023-04-22T20:12:01.173Z,3.75
2023-04-22T20:14:28.925Z,2.97
2023-04-22T20:16:55.823Z,3.22
2023-04-22T20:19:23.168Z,3.58
2023-04-22T20:21:50.840Z,3.20
2023-04-22T20:24:20.001Z,3.47
2023-04-22T20:26:47.851Z,3.75
2023-04-22T20:29:17.573Z,4.53
